Time;durP1;ratioP1;P1;durP2;ratioP2;P2;SDS_P1;SDS_P2;PMS_P1;PMS_P2;Temp;Humidity;BMP_temperature;BMP_pressure;BME280_temperature;BME280_humidity;BME280_pressure;Samples;Min_cycle;Max_cycle;Signal;HPM_P1;HPM_P2
2022/09/19 00:01:24;;;;;;;2.55;1.70;;;20.30;1.00;;;;;;5092234;28;20028;-62
2022/09/19 00:03:56;;;;;;;3.38;1.33;;;20.30;1.00;;;;;;5091323;28;20099;-62
2022/09/19 00:06:22;;;;;;;3.20;1.35;;;20.20;1.00;;;;;;5092393;28;20031;-63
2022/09/19 00:08:48;;;;;;;1.70;1.27;;;20.30;1.00;;;;;;5090328;28;20331;-62
2022/09/19 00:11:17;;;;;;;3.08;1.13;;;20.30;1.00;;;;;;5087409;28;20031;-63
2022/09/19 00:13:47;;;;;;;4.35;1.38;;;20.30;1.00;;;;;;5079926;28;20032;-63
2022/09/19 00:16:18;;;;;;;4.82;1.67;;;20.20;1.00;;;;;;5086859;28;20028;-62
2022/09/19 00:18:44;;;;;;;4.00;1.60;;;20.20;1.00;;;;;;5087865;28;20032;-62
2022/09/19 00:21:10;;;;;;;3.17;1.38;;;20.30;1.00;;;;;;5091580;28;20130;-62
2022/09/19 00:26:20;;;;;;;4.57;1.48;;;20.20;1.00;;;;;;5078059;28;20397;-62
2022/09/19 00:28:47;;;;;;;3.78;1.30;;;20.20;1.00;;;;;;5085625;28;20020;-62
2022/09/19 00:31:18;;;;;;;3.88;1.40;;;20.10;1.00;;;;;;5085859;28;20028;-62
2022/09/19 00:33:46;;;;;;;1.95;1.35;;;20.10;1.00;;;;;;5072813;28;20021;-62
2022/09/19 00:36:12;;;;;;;2.53;1.42;;;20.10;1.00;;;;;;5088981;28;20040;-62
2022/09/19 00:38:38;;;;;;;3.88;1.13;;;20.10;1.00;;;;;;5084836;28;20474;-62
2022/09/19 00:41:05;;;;;;;1.48;1.15;;;20.10;1.00;;;;;;5086751;28;20114;-63
2022/09/19 00:43:47;;;;;;;3.00;1.10;;;19.90;1.00;;;;;;5095017;28;20047;-62
2022/09/19 00:46:13;;;;;;;2.53;1.00;;;20.00;1.00;;;;;;5096200;28;20035;-63
2022/09/19 00:48:41;;;;;;;2.35;1.02;;;20.00;1.00;;;;;;5093682;28;20020;-63
2022/09/19 00:51:10;;;;;;;1.50;0.77;;;19.90;1.00;;;;;;5095893;28;20107;-63
2022/09/19 00:53:37;;;;;;;2.22;1.30;;;20.00;1.00;;;;;;5092338;28;20051;-63
2022/09/19 00:56:04;;;;;;;2.17;1.10;;;20.00;1.00;;;;;;5096022;28;20027;-63
2022/09/19 00:58:39;;;;;;;2.60;1.00;;;20.00;1.00;;;;;;5095302;28;20085;-63
2022/09/19 01:01:06;;;;;;;3.33;1.00;;;19.90;1.00;;;;;;5095319;28;20044;-63
2022/09/19 01:03:32;;;;;;;2.78;1.10;;;20.00;1.00;;;;;;5090099;28;20401;-64
2022/09/19 01:06:25;;;;;;;1.92;1.17;;;19.90;1.00;;;;;;5092123;28;20363;-63
2022/09/19 01:08:59;;;;;;;2.28;0.88;;;19.90;1.00;;;;;;5090750;28;20500;-64
2022/09/19 01:11:49;;;;;;;2.25;1.02;;;19.90;1.00;;;;;;5095443;28;20016;-63
2022/09/19 01:14:37;;;;;;;4.38;1.27;;;19.90;1.00;;;;;;5101081;28;20376;-63
2022/09/19 01:17:12;;;;;;;2.90;1.00;;;19.90;1.00;;;;;;5093073;28;20069;-63
2022/09/19 01:19:59;;;;;;;3.33;1.40;;;19.90;1.00;;;;;;5074927;28;20025;-63
2022/09/19 01:23:02;;;;;;;2.50;1.00;;;19.90;1.00;;;;;;5079019;28;20035;-63
2022/09/19 01:25:59;;;;;;;3.13;1.25;;;19.80;1.00;;;;;;5094199;28;20024;-64
2022/09/19 01:28:34;;;;;;;2.35;1.10;;;19.80;1.00;;;;;;5091547;28;20115;-63
2022/09/19 01:31:18;;;;;;;4.15;1.02;;;19.80;1.00;;;;;;5082356;28;20039;-63
2022/09/19 01:34:07;;;;;;;10.55;1.58;;;19.80;1.00;;;;;;5092171;28;20043;-63
2022/09/19 01:36:50;;;;;;;3.47;0.98;;;19.70;1.00;;;;;;5085539;28;20104;-63
2022/09/19 01:39:21;;;;;;;1.73;0.77;;;19.70;1.00;;;;;;5091611;28;20123;-63
2022/09/19 01:41:51;;;;;;;2.05;1.00;;;19.80;1.00;;;;;;5091857;28;20077;-63
2022/09/19 01:44:20;;;;;;;1.85;0.93;;;19.70;1.00;;;;;;5088920;28;20076;-63
2022/09/19 01:47:08;;;;;;;3.55;0.85;;;19.70;1.00;;;;;;5094179;28;20103;-63
2022/09/19 01:49:54;;;;;;;2.22;1.00;;;19.80;1.00;;;;;;5081528;28;20156;-63
2022/09/19 01:52:32;;;;;;;3.10;0.95;;;19.70;1.00;;;;;;5093861;28;20032;-63
2022/09/19 01:55:33;;;;;;;1.65;0.90;;;19.70;1.00;;;;;;5087774;28;20476;-63
2022/09/19 01:58:04;;;;;;;2.28;1.02;;;19.70;1.00;;;;;;5086218;28;20032;-63
2022/09/19 02:00:31;;;;;;;1.42;0.90;;;19.70;1.00;;;;;;5093554;28;20060;-63
2022/09/19 02:03:22;;;;;;;4.32;1.13;;;19.70;1.00;;;;;;5086793;28;20012;-63
2022/09/19 02:06:01;;;;;;;2.83;1.00;;;19.70;1.00;;;;;;5094226;28;20457;-63
2022/09/19 02:08:45;;;;;;;0.63;0.63;;;19.70;1.00;;;;;;5085180;28;20016;-63
2022/09/19 02:11:17;;;;;;;2.28;0.85;;;19.70;1.00;;;;;;5090562;28;20031;-63
2022/09/19 02:13:48;;;;;;;2.33;0.95;;;19.70;1.00;;;;;;5093249;28;20472;-63
2022/09/19 02:16:36;;;;;;;2.78;0.98;;;19.70;1.00;;;;;;5094362;28;20481;-63
2022/09/19 02:19:08;;;;;;;4.15;1.20;;;19.60;1.00;;;;;;5092934;28;20107;-64
2022/09/19 02:21:45;;;;;;;4.22;0.88;;;19.60;1.00;;;;;;5092913;28;20063;-62
2022/09/19 02:24:14;;;;;;;2.85;1.00;;;19.60;1.00;;;;;;5087343;28;20016;-62
2022/09/19 02:26:42;;;;;;;2.80;0.73;;;19.60;1.00;;;;;;5090626;28;20024;-62
2022/09/19 02:29:12;;;;;;;2.80;0.93;;;19.60;1.00;;;;;;5092898;28;20024;-62
2022/09/19 02:31:38;;;;;;;2.97;1.00;;;19.60;1.00;;;;;;5093979;28;20070;-62
2022/09/19 02:34:07;;;;;;;2.85;0.65;;;19.60;1.00;;;;;;5090684;28;20027;-61
2022/09/19 02:36:55;;;;;;;1.48;0.90;;;19.60;1.00;;;;;;5093897;28;20024;-62
2022/09/19 02:39:33;;;;;;;2.28;0.95;;;19.60;1.00;;;;;;5086881;28;20020;-62
2022/09/19 02:42:22;;;;;;;4.10;0.88;;;19.60;1.00;;;;;;5088240;28;20047;-62
2022/09/19 02:45:05;;;;;;;4.20;1.75;;;19.50;1.00;;;;;;5086062;28;20040;-62
2022/09/19 02:47:47;;;;;;;5.63;0.88;;;19.50;1.00;;;;;;5086554;28;20039;-63
2022/09/19 02:50:19;;;;;;;3.65;1.02;;;19.50;1.00;;;;;;5086083;28;20104;-62
2022/09/19 02:52:47;;;;;;;3.00;0.88;;;19.50;1.00;;;;;;5078128;28;20399;-62
2022/09/19 02:55:41;;;;;;;3.92;1.30;;;19.50;1.00;;;;;;5091767;28;20098;-62
2022/09/19 02:58:09;;;;;;;3.50;1.00;;;19.50;1.00;;;;;;5072815;28;20021;-63
2022/09/19 03:00:38;;;;;;;2.63;0.88;;;19.40;1.00;;;;;;5084307;28;20036;-62
2022/09/19 03:06:00;;;;;;;3.90;0.93;;;19.40;1.00;;;;;;5091909;28;20063;-62
2022/09/19 03:08:28;;;;;;;3.97;1.00;;;19.30;1.00;;;;;;5079161;28;20058;-62
2022/09/19 03:10:57;;;;;;;3.45;0.70;;;19.30;1.00;;;;;;5079889;28;20039;-62
2022/09/19 03:13:24;;;;;;;2.00;1.08;;;19.40;1.00;;;;;;5072574;28;20033;-62
2022/09/19 03:16:15;;;;;;;4.05;1.05;;;19.40;1.00;;;;;;5073633;28;20041;-62
2022/09/19 03:18:46;;;;;;;2.72;0.98;;;19.40;1.00;;;;;;5073914;28;20168;-62
2022/09/19 03:21:13;;;;;;;3.22;1.08;;;19.30;1.00;;;;;;5091935;28;20177;-62
2022/09/19 03:23:45;;;;;;;1.85;0.70;;;19.20;1.00;;;;;;5092910;28;20031;-62
2022/09/19 03:26:14;;;;;;;3.00;0.75;;;19.20;1.00;;;;;;5092127;28;20546;-62
2022/09/19 03:28:40;;;;;;;1.38;0.80;;;19.10;1.00;;;;;;5092887;28;20032;-62
2022/09/19 03:31:07;;;;;;;2.10;1.02;;;19.10;1.00;;;;;;5091842;28;20036;-63
2022/09/19 03:33:32;;;;;;;1.67;0.93;;;19.20;1.00;;;;;;5090516;28;20023;-62
2022/09/19 03:35:59;;;;;;;1.63;1.10;;;19.20;1.00;;;;;;5091414;28;20036;-62
2022/09/19 03:38:24;;;;;;;3.00;0.95;;;19.10;1.00;;;;;;5092623;28;20066;-62
2022/09/19 03:40:50;;;;;;;2.90;0.77;;;19.10;1.00;;;;;;5091109;28;20076;-62
2022/09/19 03:43:17;;;;;;;1.80;0.95;;;19.10;1.00;;;;;;5091174;28;20039;-62
2022/09/19 03:45:43;;;;;;;1.55;0.93;;;18.90;1.00;;;;;;5077243;28;20028;-62
2022/09/19 03:48:08;;;;;;;2.20;1.23;;;18.80;1.00;;;;;;5083862;28;20016;-62
2022/09/19 03:50:34;;;;;;;2.22;1.27;;;18.90;1.00;;;;;;5079795;28;20042;-62
2022/09/19 03:53:00;;;;;;;2.05;1.10;;;19.00;1.00;;;;;;5092634;28;20095;-62
2022/09/19 03:55:26;;;;;;;1.58;0.85;;;18.80;1.00;;;;;;5091197;28;20024;-62
2022/09/19 03:57:51;;;;;;;3.22;0.80;;;18.90;1.00;;;;;;5092468;28;20490;-63
2022/09/19 04:00:17;;;;;;;3.50;1.25;;;18.90;1.00;;;;;;5091595;28;20044;-63
2022/09/19 04:02:43;;;;;;;2.38;0.90;;;18.90;1.00;;;;;;5092323;28;20032;-63
2022/09/19 04:05:09;;;;;;;1.95;1.00;;;18.90;1.00;;;;;;5080753;28;20442;-63
2022/09/19 04:07:36;;;;;;;3.75;0.90;;;18.80;1.00;;;;;;5089178;28;20042;-62
2022/09/19 04:10:01;;;;;;;1.98;1.00;;;18.70;1.00;;;;;;5090139;28;20065;-63
2022/09/19 04:12:27;;;;;;;1.58;0.88;;;18.70;1.00;;;;;;5092047;28;20633;-63
2022/09/19 04:14:53;;;;;;;4.45;1.40;;;18.80;1.00;;;;;;5091401;28;20031;-63
2022/09/19 04:17:18;;;;;;;1.65;0.90;;;18.90;1.00;;;;;;5092278;28;20405;-63
2022/09/19 04:19:44;;;;;;;2.10;1.05;;;18.80;1.00;;;;;;5090652;28;20048;-62
2022/09/19 04:22:10;;;;;;;2.15;1.17;;;18.70;1.00;;;;;;5089494;28;20028;-63
2022/09/19 04:24:38;;;;;;;4.15;1.45;;;18.70;1.00;;;;;;5086178;28;20031;-63
2022/09/19 04:27:06;;;;;;;3.70;1.23;;;18.80;1.00;;;;;;5090808;28;20111;-62
2022/09/19 04:29:33;;;;;;;2.67;1.83;;;18.70;1.00;;;;;;5087046;28;20111;-63
2022/09/19 04:32:02;;;;;;;2.60;1.63;;;18.80;1.00;;;;;;5089919;28;20500;-63
2022/09/19 04:34:28;;;;;;;3.00;1.30;;;18.70;1.00;;;;;;5087917;28;20096;-63
2022/09/19 04:36:56;;;;;;;1.77;1.38;;;18.70;1.00;;;;;;5088657;28;20100;-63
2022/09/19 04:39:22;;;;;;;3.55;1.30;;;18.70;1.00;;;;;;5087305;28;20032;-62
2022/09/19 04:41:52;;;;;;;3.97;1.30;;;18.70;1.00;;;;;;5086795;28;20359;-62
2022/09/19 04:44:18;;;;;;;3.28;1.05;;;18.60;1.00;;;;;;5090616;28;20016;-63
2022/09/19 04:46:46;;;;;;;2.30;1.20;;;18.60;1.00;;;;;;5092152;28;20081;-63
2022/09/19 04:49:13;;;;;;;5.10;1.60;;;18.60;1.00;;;;;;5075262;28;20024;-63
2022/09/19 04:51:38;;;;;;;1.92;0.90;;;18.60;1.00;;;;;;5086004;28;20024;-63
2022/09/19 04:54:05;;;;;;;2.65;1.27;;;18.60;1.00;;;;;;5078847;28;20132;-63
2022/09/19 04:56:31;;;;;;;1.98;1.35;;;18.60;1.00;;;;;;5090340;28;20059;-63
2022/09/19 04:58:59;;;;;;;3.92;1.42;;;18.60;1.00;;;;;;5091816;28;20052;-63
2022/09/19 05:01:25;;;;;;;2.53;1.08;;;18.60;1.00;;;;;;5090699;28;20046;-63
2022/09/19 05:03:51;;;;;;;2.00;1.45;;;18.70;1.00;;;;;;5083903;28;20020;-63
2022/09/19 05:06:17;;;;;;;2.25;1.15;;;18.50;1.00;;;;;;5087686;28;20039;-63
2022/09/19 05:08:43;;;;;;;3.97;1.30;;;18.40;1.00;;;;;;5091711;28;20012;-63
2022/09/19 05:11:10;;;;;;;2.45;1.30;;;18.50;1.00;;;;;;5083306;28;20031;-63
2022/09/19 05:13:40;;;;;;;3.65;1.60;;;18.50;1.00;;;;;;5083908;28;20016;-63
2022/09/19 05:16:07;;;;;;;5.88;1.30;;;18.60;1.00;;;;;;5081971;28;20085;-63
2022/09/19 05:18:34;;;;;;;3.20;0.93;;;18.50;1.00;;;;;;5085417;28;20016;-63
2022/09/19 05:21:03;;;;;;;3.05;1.20;;;18.60;1.00;;;;;;5091405;28;20044;-64
2022/09/19 05:23:29;;;;;;;6.05;1.73;;;18.50;1.00;;;;;;5079957;28;20029;-63
2022/09/19 05:25:55;;;;;;;5.28;1.58;;;18.50;1.00;;;;;;5077846;28;20174;-63
2022/09/19 05:28:27;;;;;;;7.88;1.88;;;18.50;1.00;;;;;;5087571;28;20149;-63
2022/09/19 05:30:55;;;;;;;7.85;1.63;;;18.60;1.00;;;;;;5093653;28;20059;-63
2022/09/19 05:33:32;;;;;;;4.40;1.38;;;18.50;1.00;;;;;;5084972;28;20042;-64
2022/09/19 05:36:00;;;;;;;3.15;1.42;;;18.50;1.00;;;;;;5093992;28;20031;-63
2022/09/19 05:38:30;;;;;;;5.70;1.58;;;18.50;1.00;;;;;;5090071;28;20020;-63
2022/09/19 05:40:58;;;;;;;4.55;1.35;;;18.50;1.00;;;;;;5094602;28;20058;-63
2022/09/19 05:43:25;;;;;;;5.38;1.63;;;18.60;1.00;;;;;;5093885;28;20031;-63
2022/09/19 05:45:52;;;;;;;4.68;1.58;;;18.60;1.00;;;;;;5094066;28;20085;-63
2022/09/19 05:48:18;;;;;;;5.82;1.80;;;18.60;1.00;;;;;;5088661;28;20028;-63
2022/09/19 05:50:44;;;;;;;6.03;1.48;;;18.60;1.00;;;;;;5093905;28;20031;-63
2022/09/19 05:55:55;;;;;;;5.50;1.45;;;18.70;1.00;;;;;;5085172;28;20036;-64
2022/09/19 05:58:21;;;;;;;7.32;1.60;;;18.60;1.00;;;;;;5089836;28;20024;-64
2022/09/19 06:00:47;;;;;;;6.30;1.90;;;18.70;1.00;;;;;;5086605;28;20040;-64
2022/09/19 06:03:16;;;;;;;4.18;1.48;;;18.70;1.00;;;;;;5074324;28;20028;-64
2022/09/19 06:05:43;;;;;;;4.40;1.83;;;18.80;1.00;;;;;;5093973;28;20028;-64
2022/09/19 06:08:11;;;;;;;5.57;1.63;;;18.80;1.00;;;;;;5093580;28;20047;-62
2022/09/19 06:10:38;;;;;;;7.60;2.15;;;18.80;1.00;;;;;;5094706;28;20020;-62
2022/09/19 06:13:05;;;;;;;5.50;1.67;;;18.80;1.00;;;;;;5079373;28;20481;-62
2022/09/19 06:15:31;;;;;;;11.82;2.33;;;18.80;1.00;;;;;;5090815;28;20024;-63
2022/09/19 06:17:58;;;;;;;7.70;1.95;;;18.80;1.00;;;;;;5093866;28;20026;-63
2022/09/19 06:20:24;;;;;;;11.95;2.40;;;18.90;1.00;;;;;;5093941;28;20400;-62
2022/09/19 06:23:00;;;;;;;6.00;1.80;;;18.90;1.00;;;;;;5086401;28;20032;-62
2022/09/19 06:25:28;;;;;;;4.82;1.67;;;19.00;1.00;;;;;;5109872;28;20052;-62
2022/09/19 06:27:55;;;;;;;5.55;2.28;;;19.00;1.00;;;;;;5079446;28;20090;-63
2022/09/19 06:30:22;;;;;;;7.22;2.10;;;19.00;1.00;;;;;;5093998;28;20081;-63
2022/09/19 06:32:49;;;;;;;8.90;2.13;;;19.00;1.00;;;;;;5089057;28;20020;-63
2022/09/19 06:35:15;;;;;;;10.95;2.78;;;19.10;1.00;;;;;;5083758;28;20035;-62
2022/09/19 06:37:41;;;;;;;3.53;1.30;;;19.10;1.00;;;;;;5079730;28;20048;-63
2022/09/19 06:40:07;;;;;;;8.48;2.05;;;19.20;1.00;;;;;;5081092;28;20440;-63
2022/09/19 06:42:33;;;;;;;6.93;1.88;;;19.20;1.00;;;;;;5092612;28;20046;-62
2022/09/19 06:44:58;;;;;;;4.32;1.90;;;19.20;1.00;;;;;;5085374;28;20024;-63
2022/09/19 06:47:24;;;;;;;3.47;1.70;;;19.30;1.00;;;;;;5086844;28;20039;-63
2022/09/19 06:49:50;;;;;;;3.50;1.52;;;19.30;1.00;;;;;;5093647;28;20374;-63
2022/09/19 06:52:15;;;;;;;3.83;1.90;;;19.30;1.00;;;;;;5092451;28;20111;-63
2022/09/19 06:54:41;;;;;;;5.57;1.48;;;19.40;1.00;;;;;;5082711;28;20032;-63
2022/09/19 06:57:07;;;;;;;6.30;2.03;;;19.40;1.00;;;;;;5075019;28;20020;-62
2022/09/19 06:59:33;;;;;;;3.88;1.67;;;19.50;1.00;;;;;;5093390;28;20024;-62
2022/09/19 07:01:59;;;;;;;4.88;1.88;;;19.50;1.00;;;;;;5081058;28;20070;-63
2022/09/19 07:04:25;;;;;;;6.40;1.98;;;19.50;1.00;;;;;;5081732;28;20405;-62
2022/09/19 07:06:51;;;;;;;5.03;1.70;;;19.60;1.00;;;;;;5082178;28;20032;-63
2022/09/19 07:09:16;;;;;;;5.47;1.80;;;19.60;1.00;;;;;;5093309;28;20108;-63
2022/09/19 07:11:43;;;;;;;5.97;1.98;;;19.60;1.00;;;;;;5082862;28;20036;-63
2022/09/19 07:14:10;;;;;;;5.93;1.77;;;19.70;1.00;;;;;;5092210;28;20067;-62
2022/09/19 07:16:36;;;;;;;4.82;1.85;;;19.70;1.00;;;;;;5092397;28;20039;-63
2022/09/19 07:19:02;;;;;;;7.60;1.73;;;19.70;1.00;;;;;;5093117;28;20028;-63
2022/09/19 07:21:27;;;;;;;3.80;1.40;;;19.80;1.00;;;;;;5091795;28;20490;-63
2022/09/19 07:23:54;;;;;;;4.93;1.35;;;19.80;1.00;;;;;;5091988;28;20024;-64
2022/09/19 07:26:21;;;;;;;5.00;1.73;;;19.90;1.00;;;;;;5079289;28;20028;-63
2022/09/19 07:28:47;;;;;;;8.35;1.85;;;19.90;1.00;;;;;;5108541;28;20023;-63
2022/09/19 07:31:12;;;;;;;2.45;1.48;;;19.90;1.00;;;;;;5087216;28;20379;-63
2022/09/19 07:33:38;;;;;;;5.85;1.67;;;19.90;1.00;;;;;;5083974;28;20031;-64
2022/09/19 07:36:04;;;;;;;3.35;1.27;;;20.00;1.00;;;;;;5090717;28;20027;-63
2022/09/19 07:38:30;;;;;;;7.03;1.50;;;20.20;1.00;;;;;;5092443;28;20438;-64
2022/09/19 07:40:55;;;;;;;2.90;1.00;;;20.10;1.00;;;;;;5093451;28;20127;-63
2022/09/19 07:43:21;;;;;;;3.15;1.05;;;20.10;1.00;;;;;;5085250;28;20036;-64
2022/09/19 07:45:50;;;;;;;4.75;1.23;;;20.20;1.00;;;;;;5091411;28;20027;-64
2022/09/19 07:48:16;;;;;;;3.00;1.10;;;20.30;1.00;;;;;;5088938;28;20025;-64
2022/09/19 07:50:43;;;;;;;3.55;1.23;;;20.30;1.00;;;;;;5081591;28;20533;-64
2022/09/19 07:53:14;;;;;;;2.05;0.90;;;20.30;1.00;;;;;;5087842;28;20028;-64
2022/09/19 07:55:43;;;;;;;2.58;1.10;;;20.40;1.00;;;;;;5092309;28;20099;-64
2022/09/19 07:58:11;;;;;;;2.50;0.98;;;20.40;1.00;;;;;;5090845;28;20033;-64
2022/09/19 08:00:38;;;;;;;2.10;1.00;;;20.50;1.00;;;;;;5092050;28;20031;-64
2022/09/19 08:03:10;;;;;;;3.45;1.05;;;20.50;1.00;;;;;;5081591;28;20031;-64
2022/09/19 08:05:39;;;;;;;2.70;0.70;;;20.50;1.00;;;;;;5087347;28;20480;-64
2022/09/19 08:08:06;;;;;;;1.85;0.90;;;20.60;1.00;;;;;;5086035;28;20032;-64
2022/09/19 08:10:32;;;;;;;3.08;1.20;;;20.60;1.00;;;;;;5090301;28;20446;-64
2022/09/19 08:13:06;;;;;;;4.57;1.13;;;20.60;1.00;;;;;;5081138;28;20478;-64
2022/09/19 08:15:33;;;;;;;;;;;20.60;1.00;;;;;;5089980;28;20032;-64
2022/09/19 08:18:01;;;;;;;2.17;1.20;;;20.60;1.00;;;;;;5091424;28;19904;-64
2022/09/19 08:20:28;;;;;;;2.10;0.95;;;20.70;1.00;;;;;;5086490;28;20052;-64
2022/09/19 08:23:14;;;;;;;0.90;0.85;;;20.80;1.00;;;;;;5091726;28;20024;-64
2022/09/19 08:25:46;;;;;;;2.90;1.30;;;20.80;1.00;;;;;;5085961;28;20077;-64
2022/09/19 08:28:16;;;;;;;2.13;1.13;;;20.90;1.00;;;;;;5086885;28;20469;-64
2022/09/19 08:30:42;;;;;;;1.70;0.98;;;20.90;1.00;;;;;;5091609;28;20115;-64
2022/09/19 08:33:08;;;;;;;2.80;1.10;;;20.90;1.00;;;;;;5090107;28;20059;-64
2022/09/19 08:35:39;;;;;;;3.33;1.05;;;20.90;1.00;;;;;;5085450;28;20035;-64
2022/09/19 08:38:06;;;;;;;2.25;0.80;;;20.90;1.00;;;;;;5089684;28;20504;-64
2022/09/19 08:40:43;;;;;;;2.00;0.93;;;21.00;1.00;;;;;;5087949;28;20043;-63
2022/09/19 08:43:33;;;;;;;1.40;0.80;;;21.20;1.00;;;;;;5090127;28;20153;-63
2022/09/19 08:45:59;;;;;;;1.65;0.75;;;21.10;1.00;;;;;;5090451;28;20031;-63
2022/09/19 08:48:31;;;;;;;1.85;1.08;;;21.20;1.00;;;;;;5076049;28;20147;-63
2022/09/19 08:51:03;;;;;;;1.90;0.75;;;21.40;1.00;;;;;;5078153;28;20020;-63
2022/09/19 08:53:34;;;;;;;1.77;1.08;;;21.50;1.00;;;;;;5087997;28;20024;-64
2022/09/19 08:56:00;;;;;;;4.53;1.42;;;21.60;1.00;;;;;;5077428;28;20067;-63
2022/09/19 08:58:29;;;;;;;2.80;0.85;;;21.60;1.00;;;;;;5089848;28;20354;-63
2022/09/19 09:00:55;;;;;;;1.00;0.77;;;21.70;1.00;;;;;;5091375;28;20039;-63
2022/09/19 09:03:41;;;;;;;4.63;1.25;;;21.50;1.00;;;;;;5079172;28;20021;-64
2022/09/19 09:06:40;;;;;;;3.05;2.03;;;21.60;1.00;;;;;;5083949;28;20024;-63
2022/09/19 09:09:15;;;;;;;1.67;1.02;;;21.60;1.00;;;;;;5092590;28;20031;-63
2022/09/19 09:11:53;;;;;;;3.38;0.93;;;21.60;1.00;;;;;;5094373;28;20098;-63
2022/09/19 09:14:39;;;;;;;1.90;0.88;;;21.60;1.00;;;;;;5081373;28;20028;-63
2022/09/19 09:17:22;;;;;;;1.63;0.77;;;21.70;1.00;;;;;;5096297;28;20127;-63
2022/09/19 09:20:06;;;;;;;4.50;1.37;;;21.80;1.00;;;;;;5094380;28;20043;-63
2022/09/19 09:22:38;;;;;;;2.33;0.90;;;21.80;1.00;;;;;;5080937;28;20303;-63
2022/09/19 09:25:09;;;;;;;3.50;0.90;;;21.80;1.00;;;;;;5093414;28;20482;-63
2022/09/19 09:27:49;;;;;;;2.20;1.20;;;21.80;1.00;;;;;;5093348;28;20032;-64
2022/09/19 09:30:18;;;;;;;2.28;1.25;;;21.80;1.00;;;;;;5093695;28;20111;-64
2022/09/19 09:32:50;;;;;;;1.17;0.73;;;21.90;1.00;;;;;;5090858;28;20100;-63
2022/09/19 09:35:29;;;;;;;2.17;0.80;;;22.00;1.00;;;;;;5090390;28;20107;-64
2022/09/19 09:38:08;;;;;;;2.30;0.90;;;21.90;1.00;;;;;;5094985;28;20103;-64
2022/09/19 09:44:09;;;;;;;2.08;0.77;;;22.00;1.00;;;;;;5090962;28;20048;-64
2022/09/19 09:47:15;;;;;;;1.48;0.75;;;22.00;1.00;;;;;;5083359;28;20069;-64
2022/09/19 09:49:41;;;;;;;2.90;0.93;;;22.00;1.00;;;;;;5087052;28;20043;-64
2022/09/19 09:52:43;;;;;;;2.83;1.20;;;22.20;1.00;;;;;;5094966;28;20052;-64
2022/09/19 09:58:11;;;;;;;4.18;1.00;;;22.30;1.00;;;;;;5094436;28;20082;-64
2022/09/19 10:03:41;;;;;;;2.08;0.90;;;22.30;1.00;;;;;;5094023;28;20085;-64
2022/09/19 10:06:18;;;;;;;1.35;1.00;;;22.40;1.00;;;;;;5082863;28;20020;-64
2022/09/19 10:09:03;;;;;;;4.38;1.20;;;22.40;1.00;;;;;;5090214;28;20043;-64
2022/09/19 10:12:06;;;;;;;2.33;0.90;;;22.40;1.00;;;;;;5076436;28;20030;-64
2022/09/19 10:14:36;;;;;;;3.22;1.00;;;22.30;1.00;;;;;;5077976;28;20048;-64
2022/09/19 10:17:04;;;;;;;1.95;1.25;;;22.50;1.00;;;;;;5078689;28;20033;-63
2022/09/19 10:19:46;;;;;;;4.43;1.08;;;22.70;1.00;;;;;;5089281;28;20134;-63
2022/09/19 10:22:16;;;;;;;1.25;1.05;;;22.70;1.00;;;;;;5093970;28;20043;-63
2022/09/19 10:24:47;;;;;;;2.25;1.50;;;22.70;1.00;;;;;;5081994;28;20032;-64
2022/09/19 10:27:23;;;;;;;1.30;0.90;;;22.80;1.00;;;;;;5109527;28;20457;-64
2022/09/19 10:30:01;;;;;;;1.63;0.80;;;22.90;1.00;;;;;;5085504;28;20036;-64
2022/09/19 10:32:38;;;;;;;3.42;1.13;;;22.90;1.00;;;;;;5093824;28;20031;-64
2022/09/19 10:35:38;;;;;;;1.38;0.90;;;23.00;1.00;;;;;;5092989;28;20024;-64
2022/09/19 10:38:15;;;;;;;2.15;0.70;;;22.90;1.00;;;;;;5089857;28;20043;-64
2022/09/19 10:40:56;;;;;;;0.77;0.65;;;23.00;1.00;;;;;;5090377;28;20024;-64
2022/09/19 10:43:42;;;;;;;2.50;0.88;;;22.90;1.00;;;;;;5083647;28;20032;-64
2022/09/19 10:46:20;;;;;;;4.47;0.77;;;22.90;1.00;;;;;;5092460;28;20035;-63
2022/09/19 10:48:56;;;;;;;1.35;0.80;;;23.10;1.00;;;;;;5090414;28;20111;-64
2022/09/19 10:51:24;;;;;;;1.80;1.00;;;23.00;1.00;;;;;;5093068;28;20027;-64
2022/09/19 10:53:55;;;;;;;1.55;1.00;;;23.10;1.00;;;;;;5090011;28;20039;-63
2022/09/19 10:56:28;;;;;;;0.93;0.80;;;23.20;1.00;;;;;;5092517;28;20027;-63
2022/09/19 10:59:18;;;;;;;1.60;0.85;;;23.10;1.00;;;;;;5089954;28;20151;-63
2022/09/19 11:02:09;;;;;;;4.38;0.60;;;23.20;1.00;;;;;;5080260;28;20431;-63
2022/09/19 11:04:37;;;;;;;0.63;0.63;;;23.20;1.00;;;;;;5086923;28;20028;-64
2022/09/19 11:07:16;;;;;;;1.52;0.80;;;23.20;1.00;;;;;;5089181;28;20035;-63
2022/09/19 11:09:44;;;;;;;2.10;0.90;;;23.30;1.00;;;;;;5083907;28;20107;-64
2022/09/19 11:12:16;;;;;;;1.92;0.90;;;23.40;1.00;;;;;;5089493;28;20016;-63
2022/09/19 11:14:48;;;;;;;3.00;1.00;;;23.80;1.00;;;;;;5085522;28;20135;-63
2022/09/19 11:17:29;;;;;;;1.60;0.68;;;23.60;1.00;;;;;;5077278;28;20393;-63
2022/09/19 11:20:06;;;;;;;1.00;0.90;;;23.80;1.00;;;;;;5081741;28;20048;-63
2022/09/19 11:23:13;;;;;;;1.63;0.77;;;23.70;1.00;;;;;;5090787;28;20040;-63
2022/09/19 11:25:45;;;;;;;1.45;0.70;;;23.80;1.00;;;;;;5088430;28;20093;-63
2022/09/19 11:28:26;;;;;;;0.90;0.90;;;23.70;1.00;;;;;;5081329;28;20024;-63
2022/09/19 11:31:15;;;;;;;0.82;0.80;;;23.70;1.00;;;;;;5090198;28;20052;-63
2022/09/19 11:34:05;;;;;;;0.98;0.90;;;23.80;1.00;;;;;;5092111;28;20153;-63
2022/09/19 11:37:01;;;;;;;0.90;0.90;;;24.00;1.00;;;;;;5079683;28;20020;-63
2022/09/19 11:40:00;;;;;;;1.65;1.00;;;24.00;1.00;;;;;;5091230;28;20028;-63
2022/09/19 11:42:48;;;;;;;1.50;0.80;;;24.10;1.00;;;;;;5078110;28;20033;-63
2022/09/19 11:45:20;;;;;;;3.08;1.02;;;24.20;1.00;;;;;;5080853;28;20031;-63
2022/09/19 11:48:07;;;;;;;2.47;0.75;;;24.40;1.00;;;;;;5088185;28;20030;-63
2022/09/19 11:50:46;;;;;;;3.33;0.95;;;24.40;1.00;;;;;;5087772;28;20028;-63
2022/09/19 11:53:20;;;;;;;2.25;0.73;;;24.40;1.00;;;;;;5090593;28;20024;-63
2022/09/19 11:56:12;;;;;;;0.52;0.50;;;24.40;1.00;;;;;;5085729;28;20015;-63
2022/09/19 11:58:49;;;;;;;0.55;0.55;;;24.80;1.00;;;;;;5091559;28;20097;-63
2022/09/19 12:01:37;;;;;;;1.15;0.80;;;24.90;1.00;;;;;;5090558;28;20072;-63
2022/09/19 12:04:18;;;;;;;2.38;0.68;;;24.80;1.00;;;;;;5091236;28;20091;-63
2022/09/19 12:07:05;;;;;;;1.52;0.70;;;24.80;1.00;;;;;;5092161;28;20016;-63
2022/09/19 12:09:36;;;;;;;1.45;0.70;;;25.00;1.00;;;;;;5085666;28;20021;-63
2022/09/19 12:12:13;;;;;;;1.92;0.77;;;25.00;1.00;;;;;;5087567;28;20066;-63
2022/09/19 12:14:43;;;;;;;0.95;0.75;;;25.10;1.00;;;;;;5091237;28;20149;-63
2022/09/19 12:17:23;;;;;;;1.30;0.80;;;25.20;1.00;;;;;;5091993;28;20107;-63
2022/09/19 12:20:00;;;;;;;1.45;0.80;;;25.30;1.00;;;;;;5083536;28;20372;-63
2022/09/19 12:22:29;;;;;;;0.68;0.60;;;25.50;1.00;;;;;;5089081;28;20558;-63
2022/09/19 12:25:13;;;;;;;0.73;0.73;;;25.60;1.00;;;;;;5088533;28;20027;-63
2022/09/19 12:28:02;;;;;;;1.00;0.82;;;25.90;1.00;;;;;;5085995;28;20162;-63
2022/09/19 12:30:34;;;;;;;0.75;0.70;;;27.60;1.00;;;;;;5087396;28;20039;-64
2022/09/19 12:33:07;;;;;;;1.00;0.70;;;34.40;99.90;;;;;;5081078;28;20338;-63
2022/09/19 12:35:44;;;;;;;2.00;1.00;;;38.30;99.90;;;;;;5090191;28;20032;-63
2022/09/19 12:38:29;;;;;;;2.38;1.10;;;38.60;99.90;;;;;;5095453;28;20097;-63
2022/09/19 12:41:14;;;;;;;2.47;1.33;;;41.40;99.90;;;;;;5082380;28;20036;-64
2022/09/19 12:44:01;;;;;;;1.58;1.48;;;42.90;99.90;;;;;;5081195;28;20085;-62
2022/09/19 12:46:55;;;;;;;2.35;1.75;;;43.90;99.90;;;;;;5091173;28;20493;-62
2022/09/19 12:49:27;;;;;;;1.58;1.58;;;44.90;99.90;;;;;;5080623;28;20068;-63
2022/09/19 12:51:55;;;;;;;2.97;2.22;;;46.30;99.90;;;;;;5085041;28;20115;-62
2022/09/19 12:54:39;;;;;;;3.70;2.30;;;46.20;99.90;;;;;;5095452;28;20035;-62
2022/09/19 12:57:08;;;;;;;2.63;2.50;;;46.50;99.90;;;;;;5078986;28;20103;-63
2022/09/19 12:59:35;;;;;;;4.53;2.80;;;46.60;99.90;;;;;;5090992;28;20493;-62
2022/09/19 13:02:30;;;;;;;3.00;2.78;;;46.60;99.90;;;;;;5084027;28;20078;-63
2022/09/19 13:05:09;;;;;;;2.83;2.60;;;46.30;99.90;;;;;;5094333;28;20034;-62
2022/09/19 13:07:47;;;;;;;2.50;2.40;;;46.70;99.90;;;;;;5095854;28;20137;-63
2022/09/19 13:10:36;;;;;;;2.78;2.60;;;45.70;99.90;;;;;;5089204;28;20021;-62
2022/09/19 13:13:25;;;;;;;3.08;2.97;;;46.40;99.90;;;;;;5090213;28;20084;-62
2022/09/19 13:16:01;;;;;;;2.97;2.78;;;46.50;99.90;;;;;;5093935;28;20024;-62
2022/09/19 13:24:12;;;;;;;2.83;2.63;;;46.80;99.90;;;;;;5095089;28;20493;-63
2022/09/19 13:26:38;;;;;;;3.00;2.90;;;47.10;99.90;;;;;;5094031;28;20446;-62
2022/09/19 13:29:26;;;;;;;3.20;3.00;;;46.90;99.90;;;;;;5094924;28;20399;-62
2022/09/19 13:31:55;;;;;;;3.42;3.10;;;47.50;99.90;;;;;;5092911;28;20044;-62
2022/09/19 13:34:33;;;;;;;3.40;3.20;;;47.90;99.90;;;;;;5094935;28;20431;-62
2022/09/19 13:37:02;;;;;;;3.00;2.90;;;47.10;99.90;;;;;;5086815;28;20028;-62
2022/09/19 13:40:15;;;;;;;2.22;2.22;;;47.40;99.90;;;;;;5094687;28;20012;-62
2022/09/19 13:43:04;;;;;;;2.30;2.20;;;46.80;99.90;;;;;;5094316;28;20515;-63
2022/09/19 13:45:49;;;;;;;1.95;1.75;;;46.20;99.90;;;;;;5087323;28;20091;-63
2022/09/19 13:48:29;;;;;;;1.58;1.58;;;42.90;99.90;;;;;;5083742;28;20108;-63
2022/09/19 13:51:15;;;;;;;2.03;1.92;;;37.60;99.90;;;;;;5093325;28;20028;-63